Jim Falls, WI (54748)

2:06 PM CDT on August 27, 2016 (GMT -0500)
Jim Falls 3W | | Change Station

Elev 1061 ft 45.08 °N, 91.33 °W | Updated 14 seconds ago

Overcast
Overcast
69.6 °F
Feels Like 69.6 °F
N
0.0
Wind Variable Wind from ESE
Gusts 5.0 mph

Today
High -- | Low -- °F
--% Chance of Precip.
Yesterday
High -- | Low -- °F
Precip. -- in
Pressure 30.02 in
Visibility 10.0 miles
Clouds Mostly Cloudy 2200 ft
Overcast 2800 ft
Dew Point 62 °F
Humidity 77%
Rainfall 0.00 in
Snow Depth Not available.
6:21 AM 7:50 PM
Waning Crescent, 22% visible
METAR KEAU 271856Z 14006KT 10SM BKN022 OVC028 19/16 A3002 RMK AO2 RAB03E50 SLP164 P0000 T01940156
Pressure 30.02 in
Visibility 10.0 miles
Clouds Mostly Cloudy 2200 ft
Overcast 2800 ft
Dew Point 62 °F
Humidity 77%
Rainfall 0.00 in
Snow Depth Not available.
6:21 AM 7:50 PM
Waning Crescent, 22% visible
METAR KEAU 271856Z 14006KT 10SM BKN022 OVC028 19/16 A3002 RMK AO2 RAB03E50 SLP164 P0000 T01940156

10-Day Weather Forecast

Almanac

Astronomy

Aug. 27, 2016 Rise Set
Actual Time
Civil Twilight
Nautical Twilight
Astronomical Twilight
Moon
Length of Visible Light
Length of Day
Tomorrow will be .
, % of the Moon is Illuminated

Today's Extremes

State Highs State Lows

Community

WunderPhotos

Upload Photos

1,935,399 photos uploaded!

WunderBlog® & News

Nearby

Air Quality

  Air Quality AQ Index Pollutant
Not available.

Snow Depth

Station Depth Elevation

Earthquake Activity

City Distance Mag. Time & Date
Minimum magnitude displayed is 2.5.

Coastal Water Temperatures

Place Temperature

Stations

Nearby Weather Stations

Station Location Temp. Windchill Dew Point Humidity Wind Precip. Elev Updated Type
                   

Watches & Warnings

There are currently no watches in effect.